Time;durP1;ratioP1;P1;durP2;ratioP2;P2;SDS_P1;SDS_P2;PMS_P1;PMS_P2;Temp;Humidity;BMP_temperature;BMP_pressure;BME280_temperature;BME280_humidity;BME280_pressure;Samples;Min_cycle;Max_cycle;Signal;HPM_P1;HPM_P2
2023/09/26 00:01:37;;;;;;;1.23;0.30;;;;;;;15.49;100.00;101297.84;5061562;28;20043;-70
2023/09/26 00:04:03;;;;;;;0.77;0.20;;;;;;;15.51;100.00;101302.94;5064036;28;20040;-67
2023/09/26 00:06:29;;;;;;;0.60;0.20;;;;;;;15.47;100.00;101299.81;5063652;28;20035;-66
2023/09/26 00:08:55;;;;;;;0.80;0.30;;;;;;;15.48;100.00;101303.25;5063466;28;20115;-66
2023/09/26 00:11:21;;;;;;;0.90;0.20;;;;;;;15.45;100.00;101303.56;5062223;28;20571;-66
2023/09/26 00:13:48;;;;;;;0.30;0.20;;;;;;;15.42;100.00;101309.13;5055753;28;20029;-66
2023/09/26 00:16:14;;;;;;;3.45;0.30;;;;;;;15.41;100.00;101312.75;5056553;28;20025;-66
2023/09/26 00:18:42;;;;;;;5.10;0.30;;;;;;;15.40;100.00;101317.16;5055161;28;20040;-66
2023/09/26 00:21:08;;;;;;;3.55;0.20;;;;;;;15.36;100.00;101323.72;5058410;28;20042;-66
2023/09/26 00:23:35;;;;;;;0.80;0.28;;;;;;;15.34;100.00;101323.03;5057369;28;20045;-66
2023/09/26 00:26:01;;;;;;;0.90;0.20;;;;;;;15.34;100.00;101323.03;5063047;28;20115;-66
2023/09/26 00:28:28;;;;;;;1.23;0.30;;;;;;;15.33;100.00;101310.88;5064664;28;20048;-66
2023/09/26 00:30:56;;;;;;;1.80;0.30;;;;;;;15.28;100.00;101313.16;5062451;28;20373;-66
2023/09/26 00:33:21;;;;;;;1.23;0.30;;;;;;;15.23;100.00;101312.78;5060871;28;20036;-67
2023/09/26 00:35:47;;;;;;;1.85;0.20;;;;;;;15.24;100.00;101309.19;5064268;28;20363;-66
2023/09/26 00:38:12;;;;;;;2.88;0.40;;;;;;;15.24;100.00;101301.31;5066948;28;20036;-66
2023/09/26 00:40:40;;;;;;;1.13;0.20;;;;;;;15.20;100.00;101302.59;5059517;28;20131;-66
2023/09/26 00:43:06;;;;;;;0.80;0.30;;;;;;;15.19;100.00;101309.66;5061721;28;20513;-67
2023/09/26 00:45:32;;;;;;;0.85;0.30;;;;;;;15.18;100.00;101307.16;5061408;28;20037;-66
2023/09/26 00:47:58;;;;;;;1.17;0.30;;;;;;;15.21;100.00;101305.06;5060393;28;20028;-66
2023/09/26 00:50:24;;;;;;;0.60;0.30;;;;;;;15.20;100.00;101313.09;5065345;28;20115;-66
2023/09/26 00:52:51;;;;;;;1.00;0.30;;;;;;;15.16;100.00;101302.06;5065244;28;20123;-66
2023/09/26 00:55:22;;;;;;;0.73;0.25;;;;;;;15.10;100.00;101305.34;5059424;28;20049;-66
2023/09/26 00:57:48;;;;;;;0.82;0.38;;;;;;;15.07;100.00;101307.44;5062436;28;20032;-66
2023/09/26 01:00:16;;;;;;;1.50;0.40;;;;;;;15.04;100.00;101315.63;5060953;28;20021;-66
2023/09/26 01:02:42;;;;;;;2.72;0.30;;;;;;;15.00;100.00;101316.91;5067067;28;20480;-66
2023/09/26 01:05:08;;;;;;;1.00;0.40;;;;;;;14.94;100.00;101313.91;5064978;28;20028;-67
2023/09/26 01:07:35;;;;;;;4.00;0.50;;;;;;;14.94;100.00;101306.03;5058371;28;20430;-66
2023/09/26 01:10:03;;;;;;;0.60;0.20;;;;;;;14.98;100.00;101303.09;5065409;28;20035;-67
2023/09/26 01:12:28;;;;;;;1.55;0.50;;;;;;;14.97;100.00;101301.47;5061597;28;20032;-66
2023/09/26 01:14:54;;;;;;;0.90;0.40;;;;;;;14.98;100.00;101301.31;5062329;28;20117;-66
2023/09/26 01:17:20;;;;;;;2.00;0.40;;;;;;;14.98;100.00;101297.88;5068573;28;20387;-67
2023/09/26 01:19:45;;;;;;;1.58;0.50;;;;;;;14.96;100.00;101289.31;5066958;28;20501;-66
2023/09/26 01:22:15;;;;;;;1.95;0.40;;;;;;;14.92;100.00;101291.41;5065476;28;20032;-66
2023/09/26 01:24:41;;;;;;;1.17;0.30;;;;;;;14.88;100.00;101285.66;5070068;28;20037;-66
2023/09/26 01:27:06;;;;;;;3.47;0.50;;;;;;;14.87;100.00;101286.63;5068301;28;20032;-66
2023/09/26 01:29:32;;;;;;;1.77;0.60;;;;;;;14.85;100.00;101301.69;5072436;28;20119;-66
2023/09/26 01:31:57;;;;;;;1.48;0.50;;;;;;;14.83;100.00;101298.41;5071330;28;20070;-66
2023/09/26 01:34:23;;;;;;;1.50;0.40;;;;;;;14.83;100.00;101297.56;5066953;28;20086;-66
2023/09/26 01:36:48;;;;;;;4.00;0.55;;;;;;;14.84;100.00;101286.09;5068153;28;20032;-66
2023/09/26 01:39:14;;;;;;;2.97;0.95;;;;;;;14.79;100.00;101289.19;5064760;28;20380;-67
2023/09/26 01:41:39;;;;;;;2.45;0.50;;;;;;;14.87;100.00;101283.19;5060495;28;20037;-66
2023/09/26 01:44:06;;;;;;;2.53;0.90;;;;;;;14.87;100.00;101283.19;5072700;28;20043;-66
2023/09/26 01:46:32;;;;;;;3.22;1.05;;;;;;;14.77;100.00;101274.56;5065794;28;20148;-67
2023/09/26 01:48:57;;;;;;;2.10;0.73;;;;;;;14.79;100.00;101268.19;5066807;28;20120;-66
2023/09/26 01:51:23;;;;;;;2.40;0.57;;;;;;;14.86;100.00;101268.41;5066158;28;20055;-68
2023/09/26 01:53:49;;;;;;;1.00;0.40;;;;;;;14.88;100.00;101271.72;5067391;28;20032;-66
2023/09/26 01:56:15;;;;;;;1.25;0.57;;;;;;;14.96;100.00;101270.94;5066399;28;20044;-66
2023/09/26 01:58:41;;;;;;;4.35;0.70;;;;;;;14.96;100.00;101257.81;5066311;28;20106;-66
2023/09/26 02:01:06;;;;;;;1.33;0.55;;;;;;;14.95;100.00;101262.25;5066085;28;20032;-66
2023/09/26 02:03:33;;;;;;;2.15;0.60;;;;;;;14.92;100.00;101263.38;5063848;28;20131;-67
2023/09/26 02:05:58;;;;;;;2.75;0.65;;;;;;;14.92;100.00;101265.19;5067266;28;20020;-66
2023/09/26 02:08:24;;;;;;;4.85;0.95;;;;;;;14.96;100.00;101263.06;5065190;28;20468;-66
2023/09/26 02:10:50;;;;;;;1.42;0.55;;;;;;;14.99;100.00;101262.78;5061722;28;20033;-66
2023/09/26 02:13:15;;;;;;;2.45;0.80;;;;;;;14.99;100.00;101266.22;5064707;28;20035;-66
2023/09/26 02:15:41;;;;;;;1.60;0.65;;;;;;;15.02;100.00;101272.97;5060166;28;20128;-66
2023/09/26 02:18:06;;;;;;;3.65;0.88;;;;;;;15.00;100.00;101277.53;5068921;28;20029;-66
2023/09/26 02:20:32;;;;;;;2.47;0.80;;;;;;;15.02;100.00;101273.78;5068191;28;20032;-66
2023/09/26 02:22:58;;;;;;;2.03;0.80;;;;;;;15.06;100.00;101269.06;5063765;28;20097;-66
2023/09/26 02:25:24;;;;;;;1.95;0.77;;;;;;;15.04;100.00;101263.97;5061373;28;20074;-66
2023/09/26 02:27:50;;;;;;;8.90;1.25;;;;;;;15.04;100.00;101271.84;5064235;28;20491;-66
2023/09/26 02:30:19;;;;;;;3.67;0.93;;;;;;;15.07;100.00;101263.66;5063958;28;20028;-66
2023/09/26 02:32:45;;;;;;;2.55;1.33;;;;;;;15.03;100.00;101259.69;5062152;28;20043;-66
2023/09/26 02:35:13;;;;;;;1.77;0.70;;;;;;;14.99;100.00;101266.22;5060603;28;20548;-66
2023/09/26 02:37:39;;;;;;;2.67;0.63;;;;;;;15.02;100.00;101262.47;5058956;28;20538;-66
2023/09/26 02:40:11;;;;;;;2.85;1.15;;;;;;;15.00;100.00;101254.75;5058955;28;20044;-67
2023/09/26 02:42:38;;;;;;;3.03;1.02;;;;;;;14.96;100.00;101257.81;5061594;28;20029;-66
2023/09/26 02:45:04;;;;;;;4.85;1.83;;;;;;;14.94;100.00;101265.84;5061670;28;20047;-66
2023/09/26 02:47:30;;;;;;;3.50;1.13;;;;;;;14.98;100.00;101253.25;5059123;28;20051;-66
2023/09/26 02:49:55;;;;;;;3.13;1.40;;;;;;;14.97;100.00;101264.72;5058151;28;20024;-66
2023/09/26 02:52:25;;;;;;;2.53;1.42;;;;;;;14.93;100.00;101264.22;5057888;28;20143;-66
2023/09/26 02:54:51;;;;;;;3.20;1.17;;;;;;;14.93;100.00;101266.84;5066710;28;20123;-66
2023/09/26 02:57:18;;;;;;;3.55;0.95;;;;;;;14.99;100.00;101257.53;5056668;28;20064;-66
2023/09/26 02:59:44;;;;;;;2.25;1.33;;;;;;;15.03;100.00;101258.88;5058123;28;20060;-66
2023/09/26 03:02:09;;;;;;;4.10;1.35;;;;;;;15.05;100.00;101262.16;5059295;28;20114;-66
2023/09/26 03:04:35;;;;;;;4.68;1.48;;;;;;;15.07;100.00;101260.22;5063563;28;20048;-66
2023/09/26 03:07:00;;;;;;;3.45;1.90;;;;;;;15.07;100.00;101261.03;5065563;28;20031;-66
2023/09/26 03:09:26;;;;;;;2.55;0.88;;;;;;;15.08;100.00;101265.31;5060949;28;20489;-66
2023/09/26 03:11:51;;;;;;;3.00;1.25;;;;;;;15.07;100.00;101252.34;5064075;28;20025;-66
2023/09/26 03:14:19;;;;;;;2.85;1.45;;;;;;;15.02;100.00;101252.78;5058120;28;20040;-66
2023/09/26 03:16:45;;;;;;;5.57;2.10;;;;;;;15.03;100.00;101253.63;5056773;28;20461;-66
2023/09/26 03:19:10;;;;;;;6.65;2.00;;;;;;;15.00;100.00;101251.28;5056855;28;20040;-66
2023/09/26 03:21:36;;;;;;;3.28;1.58;;;;;;;14.94;100.00;101245.69;5059377;28;20029;-66
2023/09/26 03:24:02;;;;;;;4.65;1.80;;;;;;;14.90;100.00;101241.72;5062238;28;20035;-66
2023/09/26 03:26:27;;;;;;;3.42;1.85;;;;;;;14.89;100.00;101247.13;5066640;28;20376;-66
2023/09/26 03:28:53;;;;;;;4.85;1.88;;;;;;;15.05;100.00;101241.16;5060248;28;20062;-66
2023/09/26 03:31:18;;;;;;;10.70;2.33;;;;;;;15.14;100.00;101233.16;5057225;28;20384;-66
2023/09/26 03:33:44;;;;;;;3.58;1.80;;;;;;;15.09;100.00;101219.72;5058607;28;20484;-66
2023/09/26 03:36:10;;;;;;;5.00;2.20;;;;;;;15.05;100.00;101220.16;5054117;28;20036;-66
2023/09/26 03:38:35;;;;;;;4.88;2.05;;;;;;;15.01;100.00;101217.03;5055144;28;20119;-66
2023/09/26 03:41:03;;;;;;;5.88;1.58;;;;;;;14.97;100.00;101218.31;5065101;28;20040;-66
2023/09/26 03:43:29;;;;;;;4.07;1.92;;;;;;;14.92;100.00;101221.41;5065629;28;20082;-66
2023/09/26 03:46:01;;;;;;;3.78;2.17;;;;;;;14.89;100.00;101208.59;5057755;28;20500;-66
2023/09/26 03:48:27;;;;;;;4.57;1.90;;;;;;;14.96;100.00;101213.22;5065245;28;20115;-66
2023/09/26 03:50:53;;;;;;;4.88;2.00;;;;;;;15.10;100.00;101210.03;5062881;28;20120;-66
2023/09/26 03:53:18;;;;;;;4.15;1.80;;;;;;;15.15;100.00;101205.09;5059424;28;20047;-66
2023/09/26 03:55:43;;;;;;;4.60;2.05;;;;;;;15.13;100.00;101207.06;5065804;28;20053;-66
2023/09/26 03:58:09;;;;;;;4.70;1.77;;;;;;;15.10;100.00;101200.34;5072076;28;20195;-66
2023/09/26 04:00:34;;;;;;;3.08;1.80;;;;;;;15.01;100.00;101205.72;5063018;28;20028;-66
2023/09/26 04:03:01;;;;;;;5.25;2.10;;;;;;;14.91;100.00;101209.25;5064795;28;20031;-66
2023/09/26 04:05:27;;;;;;;6.28;1.95;;;;;;;14.94;100.00;101213.38;5056808;28;20366;-67
2023/09/26 04:07:53;;;;;;;5.40;2.03;;;;;;;14.92;100.00;101216.16;5066543;28;20059;-66
2023/09/26 04:10:18;;;;;;;5.72;2.05;;;;;;;14.92;100.00;101203.03;5065298;28;20032;-66
2023/09/26 04:12:44;;;;;;;6.55;2.30;;;;;;;14.88;100.00;101203.50;5067975;28;20071;-66
2023/09/26 04:15:10;;;;;;;2.30;2.10;;;;;;;14.84;100.00;101207.41;5066493;28;20066;-66
2023/09/26 04:17:36;;;;;;;5.38;2.25;;;;;;;14.82;100.00;101214.59;5065705;28;20036;-66
2023/09/26 04:20:10;;;;;;;8.32;2.95;;;;;;;14.76;100.00;101218.66;5068760;28;20036;-66
2023/09/26 04:22:37;;;;;;;6.47;3.10;;;;;;;14.70;100.00;101215.81;5073330;28;20039;-66
2023/09/26 04:25:03;;;;;;;6.85;2.92;;;;;;;14.85;100.00;101206.44;5064663;28;20029;-66
2023/09/26 04:27:28;;;;;;;5.22;2.75;;;;;;;14.81;100.00;101208.53;5066362;28;20113;-66
2023/09/26 04:29:54;;;;;;;5.60;2.75;;;;;;;14.73;100.00;101199.78;5067878;28;20028;-66
2023/09/26 04:32:19;;;;;;;3.92;2.97;;;;;;;14.71;100.00;101197.31;5066282;28;20058;-66
2023/09/26 04:34:45;;;;;;;4.93;1.75;;;;;;;14.68;100.00;101202.03;5066865;28;20491;-66
2023/09/26 04:37:10;;;;;;;6.95;2.67;;;;;;;14.64;100.00;101206.78;5066163;28;20033;-66
2023/09/26 04:39:36;;;;;;;3.22;2.17;;;;;;;14.74;100.00;101199.63;5064894;28;20464;-66
2023/09/26 04:42:01;;;;;;;4.40;2.42;;;;;;;14.77;100.00;101201.94;5066867;28;20035;-66
2023/09/26 04:44:27;;;;;;;5.13;2.80;;;;;;;14.75;100.00;101198.66;5057270;28;20033;-66
2023/09/26 04:46:52;;;;;;;4.75;2.17;;;;;;;14.69;100.00;101199.25;5067578;28;20391;-66
2023/09/26 04:49:18;;;;;;;5.20;2.35;;;;;;;14.64;100.00;101196.31;5069251;28;20383;-66
2023/09/26 04:51:43;;;;;;;6.50;2.60;;;;;;;14.60;100.00;101205.44;5067778;28;20032;-66
2023/09/26 04:54:09;;;;;;;3.92;2.38;;;;;;;14.56;100.00;101198.84;5065438;28;21321;-66
2023/09/26 04:56:35;;;;;;;4.00;2.55;;;;;;;14.53;100.00;101196.53;5057843;28;20052;-66
2023/09/26 04:59:01;;;;;;;5.32;2.70;;;;;;;14.54;100.00;101204.25;5066229;28;20041;-67
2023/09/26 05:01:27;;;;;;;7.63;2.95;;;;;;;14.52;100.00;101197.53;5063016;28;20035;-66
2023/09/26 05:03:53;;;;;;;3.72;2.20;;;;;;;14.45;100.00;101202.53;5067258;28;20070;-66
2023/09/26 05:06:18;;;;;;;5.10;2.58;;;;;;;14.48;100.00;101209.28;5061387;28;20036;-67
2023/09/26 05:08:44;;;;;;;4.72;2.85;;;;;;;14.48;100.00;101209.28;5064939;28;20484;-67
2023/09/26 05:11:16;;;;;;;3.88;2.03;;;;;;;14.53;100.00;101204.41;5070225;28;20056;-66
2023/09/26 05:13:42;;;;;;;5.47;2.95;;;;;;;14.55;100.00;101205.91;5065139;28;20039;-67
2023/09/26 05:16:09;;;;;;;4.20;2.47;;;;;;;14.57;100.00;101205.75;5060718;28;20500;-67
2023/09/26 05:18:34;;;;;;;6.53;3.03;;;;;;;14.57;100.00;101208.38;5063804;28;20480;-68
2023/09/26 05:21:05;;;;;;;7.50;2.45;;;;;;;14.56;100.00;101204.94;5063408;28;20090;-67
2023/09/26 05:23:31;;;;;;;5.38;2.30;;;;;;;14.57;100.00;101205.75;5061398;28;20071;-67
2023/09/26 05:26:06;;;;;;;5.18;2.90;;;;;;;14.60;100.00;101202.81;5065495;28;20059;-67
2023/09/26 05:28:31;;;;;;;6.07;2.78;;;;;;;14.62;100.00;101200.06;5064722;28;20032;-67
2023/09/26 05:30:57;;;;;;;9.38;2.92;;;;;;;14.63;100.00;101205.16;5061541;28;20040;-67
2023/09/26 05:33:22;;;;;;;9.23;3.10;;;;;;;14.80;100.00;101201.63;5066287;28;20107;-66
2023/09/26 05:35:48;;;;;;;5.63;2.92;;;;;;;14.85;100.00;101209.88;5059160;28;20021;-67
2023/09/26 05:38:13;;;;;;;3.72;2.67;;;;;;;14.89;100.00;101215.63;5061186;28;20519;-66
2023/09/26 05:40:39;;;;;;;5.55;2.65;;;;;;;15.04;100.00;101202.78;5057991;28;20052;-66
2023/09/26 05:43:05;;;;;;;8.63;3.33;;;;;;;15.05;100.00;101214.91;5062833;28;20063;-67
2023/09/26 05:45:30;;;;;;;4.63;2.55;;;;;;;15.12;100.00;101215.94;5066150;28;20841;-67
2023/09/26 05:47:56;;;;;;;5.25;2.75;;;;;;;15.19;100.00;101222.19;5057949;28;20060;-68
2023/09/26 05:50:22;;;;;;;5.90;3.00;;;;;;;15.25;100.00;101229.44;5058719;28;20040;-67
2023/09/26 05:52:47;;;;;;;8.75;3.13;;;;;;;15.34;100.00;101220.63;5060802;28;20025;-67
2023/09/26 05:55:13;;;;;;;5.00;2.60;;;;;;;15.49;100.00;101211.19;5064676;28;20326;-66
2023/09/26 05:57:38;;;;;;;6.03;2.72;;;;;;;15.51;100.00;101229.41;5063435;28;20052;-67
2023/09/26 06:00:11;;;;;;;5.18;2.60;;;;;;;15.60;100.00;101221.41;5064018;28;20094;-68
2023/09/26 06:02:37;;;;;;;7.78;3.15;;;;;;;15.73;100.00;101235.91;5061127;28;20037;-67
2023/09/26 06:05:02;;;;;;;11.23;3.50;;;;;;;15.92;100.00;101240.91;5063304;28;20028;-67
2023/09/26 06:07:28;;;;;;;5.22;2.38;;;;;;;16.00;100.00;101240.94;5065981;28;20025;-67
2023/09/26 06:09:53;;;;;;;3.60;2.55;;;;;;;16.23;100.00;101230.59;5071289;28;20106;-67
2023/09/26 06:12:19;;;;;;;4.78;2.97;;;;;;;16.39;100.00;101232.44;5067515;28;20059;-67
2023/09/26 06:14:46;;;;;;;4.63;2.72;;;;;;;16.64;100.00;101225.34;5067400;28;20107;-68
2023/09/26 06:17:11;;;;;;;7.28;3.22;;;;;;;16.67;100.00;101228.50;5069718;28;20032;-67
2023/09/26 06:19:37;;;;;;;7.40;3.15;;;;;;;16.63;100.00;101219.25;5063680;28;20058;-67
2023/09/26 06:22:02;;;;;;;7.32;3.50;;;;;;;16.59;100.00;101221.41;5069936;28;20046;-67
2023/09/26 06:24:28;;;;;;;6.75;2.47;;;;;;;16.62;100.00;101222.06;5066078;28;20044;-67
2023/09/26 06:26:53;;;;;;;9.65;2.90;;;;;;;16.68;100.00;101224.06;5068709;28;20123;-67
2023/09/26 06:29:19;;;;;;;4.55;2.65;;;;;;;16.75;100.00;101217.97;5068251;28;20025;-67
2023/09/26 06:31:45;;;;;;;6.40;3.30;;;;;;;16.90;100.00;101216.31;5065459;28;20120;-67
2023/09/26 06:34:11;;;;;;;5.82;2.83;;;;;;;17.27;100.00;101222.78;5068342;28;20036;-67
2023/09/26 06:36:37;;;;;;;6.90;2.63;;;;;;;17.66;100.00;101222.00;5064472;28;20070;-69
2023/09/26 06:39:03;;;;;;;3.72;1.77;;;;;;;18.45;93.94;101224.25;5063136;28;20479;-69
2023/09/26 06:41:28;;;;;;;4.82;1.42;;;;;;;19.26;87.36;101227.16;5065303;28;20039;-68
2023/09/26 06:43:54;;;;;;;3.40;1.58;;;;;;;19.35;91.89;101226.88;5066579;28;20017;-69
2023/09/26 06:46:19;;;;;;;3.58;1.30;;;;;;;19.20;91.85;101231.34;5068514;28;20460;-68
2023/09/26 06:48:45;;;;;;;3.28;1.00;;;;;;;19.65;87.37;101237.44;5064642;28;20036;-67
2023/09/26 06:51:11;;;;;;;4.72;0.98;;;;;;;20.11;84.06;101228.19;5068726;28;20032;-68
2023/09/26 06:53:37;;;;;;;3.28;1.10;;;;;;;20.45;82.33;101224.84;5065406;28;20032;-67
2023/09/26 06:56:05;;;;;;;3.10;0.70;;;;;;;20.70;78.63;101219.97;5057473;28;20083;-70
2023/09/26 06:58:31;;;;;;;3.33;0.75;;;;;;;20.87;76.85;101216.00;5064517;28;20041;-67
2023/09/26 07:00:57;;;;;;;1.50;0.50;;;;;;;21.26;78.23;101216.47;5067267;28;20024;-67
2023/09/26 07:03:22;;;;;;;4.07;0.70;;;;;;;21.37;72.48;101219.34;5063262;28;20036;-67
2023/09/26 07:05:48;;;;;;;1.60;0.73;;;;;;;21.56;73.17;101217.81;5063014;28;20043;-66
2023/09/26 07:08:14;;;;;;;2.20;0.50;;;;;;;21.63;73.15;101205.41;5070687;28;20025;-66
2023/09/26 07:10:40;;;;;;;2.22;0.70;;;;;;;21.73;68.96;101218.28;5066574;28;20115;-66
2023/09/26 07:13:06;;;;;;;3.63;0.80;;;;;;;21.76;73.90;101217.84;5064811;28;20219;-67
2023/09/26 07:15:32;;;;;;;1.63;0.40;;;;;;;21.74;71.68;101214.63;5058673;28;20099;-67
2023/09/26 07:17:59;;;;;;;1.63;0.50;;;;;;;21.75;70.64;101221.53;5067263;28;20033;-67
2023/09/26 07:20:25;;;;;;;1.05;0.40;;;;;;;21.81;72.88;101212.78;5083408;28;20509;-68
2023/09/26 07:22:51;;;;;;;2.92;0.45;;;;;;;21.82;75.24;101211.75;5061271;28;20154;-67
2023/09/26 07:25:16;;;;;;;3.80;0.50;;;;;;;21.62;74.12;101222.31;5069812;28;20456;-67
2023/09/26 07:27:42;;;;;;;1.17;0.40;;;;;;;21.77;73.66;101211.53;5062089;28;20029;-67
2023/09/26 07:30:09;;;;;;;1.27;0.35;;;;;;;21.82;68.79;101209.09;5062833;28;20032;-68
2023/09/26 07:32:34;;;;;;;2.35;0.50;;;;;;;21.81;75.97;101202.16;5066241;28;20380;-67
2023/09/26 07:35:00;;;;;;;2.63;0.40;;;;;;;21.70;76.57;101218.69;5065192;28;20132;-68
2023/09/26 07:37:26;;;;;;;1.00;0.25;;;;;;;21.81;73.17;101216.25;5061833;28;20064;-67
2023/09/26 07:39:52;;;;;;;2.80;0.50;;;;;;;21.90;76.20;101216.88;5061593;28;20029;-67
2023/09/26 07:42:21;;;;;;;1.88;0.63;;;;;;;21.88;73.68;101226.88;5062718;28;20035;-67
2023/09/26 07:44:46;;;;;;;1.70;0.40;;;;;;;21.83;74.79;101219.53;5060537;28;20433;-68
2023/09/26 07:47:12;;;;;;;1.83;0.50;;;;;;;21.92;73.78;101222.81;5061728;28;20154;-66
2023/09/26 07:49:40;;;;;;;1.45;0.73;;;;;;;22.20;71.88;101229.84;5061864;28;20064;-67
2023/09/26 07:52:06;;;;;;;3.13;1.20;;;;;;;22.42;67.65;101228.63;5056504;28;20036;-65
2023/09/26 07:54:32;;;;;;;3.33;0.65;;;;;;;22.60;67.94;101226.19;5055559;28;20059;-66
2023/09/26 07:56:59;;;;;;;1.98;0.52;;;;;;;22.52;65.97;101226.38;5057671;28;20055;-66
2023/09/26 07:59:24;;;;;;;2.60;0.50;;;;;;;22.48;71.79;101230.47;5057957;28;20024;-67
2023/09/26 08:01:50;;;;;;;1.10;0.30;;;;;;;22.48;67.62;101233.13;5057844;28;20498;-66
2023/09/26 08:04:15;;;;;;;1.33;0.38;;;;;;;22.67;70.46;101236.81;5061151;28;20111;-65
2023/09/26 08:06:41;;;;;;;2.15;0.50;;;;;;;22.59;70.07;101231.69;5056408;28;20090;-63
2023/09/26 08:09:06;;;;;;;3.60;0.60;;;;;;;22.46;72.13;101243.13;5058932;28;20025;-65
2023/09/26 08:11:32;;;;;;;1.00;0.40;;;;;;;22.54;72.69;101242.94;5061009;28;20082;-67
2023/09/26 08:13:57;;;;;;;1.70;0.50;;;;;;;22.34;70.54;101245.56;5054965;28;20033;-67
2023/09/26 08:16:23;;;;;;;2.00;0.55;;;;;;;22.33;72.05;101241.28;5051910;28;20177;-68
2023/09/26 08:18:50;;;;;;;0.90;0.55;;;;;;;22.62;68.69;101242.72;5051985;28;20041;-68
2023/09/26 08:21:16;;;;;;;1.90;0.60;;;;;;;22.80;68.95;101247.44;5059634;28;20024;-66
2023/09/26 08:23:43;;;;;;;1.42;0.52;;;;;;;22.68;71.82;101247.22;5052820;28;20491;-66
2023/09/26 08:26:11;;;;;;;2.92;0.68;;;;;;;22.54;73.99;101242.94;5062517;28;20028;-67
2023/09/26 08:28:40;;;;;;;1.52;0.55;;;;;;;22.40;75.31;101251.91;5065701;28;20047;-67
2023/09/26 08:31:09;;;;;;;6.95;0.70;;;;;;;22.28;77.08;101245.56;5068095;28;20021;-67
2023/09/26 08:33:36;;;;;;;2.22;0.50;;;;;;;22.13;78.46;101251.88;5062605;28;20032;-68
2023/09/26 08:36:02;;;;;;;3.20;0.47;;;;;;;22.00;79.01;101251.81;5069303;28;20025;-68
2023/09/26 08:38:28;;;;;;;2.50;0.60;;;;;;;21.89;79.66;101249.75;5062852;28;20115;-68
2023/09/26 08:40:58;;;;;;;1.33;0.50;;;;;;;21.74;80.74;101246.44;5071196;28;20127;-69
2023/09/26 08:43:25;;;;;;;2.65;0.60;;;;;;;21.61;81.53;101249.03;5066322;28;20169;-70
2023/09/26 08:45:52;;;;;;;1.35;0.50;;;;;;;21.67;80.23;101245.59;5066377;28;20380;-69
2023/09/26 08:48:18;;;;;;;1.45;0.50;;;;;;;21.63;80.17;101239.88;5065227;28;20021;-68
2023/09/26 08:50:43;;;;;;;3.05;0.50;;;;;;;21.69;80.09;101243.56;5068353;28;20115;-68
2023/09/26 08:53:09;;;;;;;1.20;0.40;;;;;;;22.34;72.21;101250.06;5068720;28;20064;-68
2023/09/26 08:55:38;;;;;;;1.35;0.73;;;;;;;22.81;68.77;101230.47;5060066;28;20048;-67
2023/09/26 08:58:04;;;;;;;1.90;0.50;;;;;;;23.02;68.11;101232.09;5061437;28;20484;-66
2023/09/26 09:00:30;;;;;;;4.00;0.75;;;;;;;23.29;65.99;101230.97;5061775;28;20044;-67
2023/09/26 09:02:56;;;;;;;3.85;0.60;;;;;;;23.36;69.08;101229.13;5063607;28;20062;-68
2023/09/26 09:05:22;;;;;;;2.65;0.43;;;;;;;23.18;71.26;101223.63;5062421;28;20039;-68
2023/09/26 09:07:48;;;;;;;2.05;0.43;;;;;;;22.95;70.97;101228.63;5063522;28;20495;-67
2023/09/26 09:10:18;;;;;;;1.55;0.40;;;;;;;23.11;68.98;101217.56;5068098;28;20029;-68
2023/09/26 09:12:47;;;;;;;2.80;0.50;;;;;;;23.34;67.80;101217.06;5071042;28;20127;-67
2023/09/26 09:15:16;;;;;;;1.92;0.40;;;;;;;23.52;67.13;101209.22;5062839;28;20437;-68
2023/09/26 09:17:43;;;;;;;2.15;0.40;;;;;;;23.53;68.06;101210.03;5062653;28;20428;-68
2023/09/26 09:20:10;;;;;;;0.75;0.40;;;;;;;23.55;63.63;101223.97;5070212;28;20032;-67
2023/09/26 09:22:36;;;;;;;2.25;0.55;;;;;;;23.63;65.62;101211.22;5068831;28;20126;-67
2023/09/26 09:25:02;;;;;;;1.42;0.57;;;;;;;23.57;64.97;101206.78;5069629;28;20032;-69
2023/09/26 09:27:38;;;;;;;4.15;0.60;;;;;;;23.49;62.86;101212.28;5066806;28;20392;-66
2023/09/26 09:30:12;;;;;;;0.90;0.40;;;;;;;23.63;63.70;101210.44;5067387;28;20029;-68
2023/09/26 09:32:40;;;;;;;1.75;0.40;;;;;;;23.65;63.82;101209.16;5065672;28;20480;-68
2023/09/26 09:35:08;;;;;;;2.78;0.50;;;;;;;23.72;63.05;101201.97;5069457;28;20040;-66
2023/09/26 09:37:33;;;;;;;0.80;0.30;;;;;;;23.76;63.71;101197.84;5067378;28;20044;-68
2023/09/26 09:39:59;;;;;;;2.45;0.45;;;;;;;23.79;62.91;101193.94;5062985;28;20880;-67
2023/09/26 09:42:24;;;;;;;0.90;0.60;;;;;;;23.76;63.49;101191.72;5068105;28;20065;-67
2023/09/26 09:44:50;;;;;;;2.53;0.55;;;;;;;23.82;63.63;101196.19;5066327;28;21133;-67
2023/09/26 09:47:22;;;;;;;2.30;0.32;;;;;;;23.85;61.18;101193.09;5072203;28;20058;-66
2023/09/26 09:49:49;;;;;;;1.38;0.50;;;;;;;23.92;62.02;101185.06;5066862;28;20033;-66
2023/09/26 09:52:21;;;;;;;1.10;0.50;;;;;;;24.09;61.06;101187.00;5066873;28;20024;-66
2023/09/26 09:54:47;;;;;;;0.70;0.40;;;;;;;24.10;61.47;101190.50;5065828;28;20518;-67
2023/09/26 09:57:15;;;;;;;4.22;0.50;;;;;;;24.09;58.92;101195.00;5064795;28;20413;-67
2023/09/26 09:59:42;;;;;;;1.23;0.40;;;;;;;24.08;63.19;101185.38;5060651;28;20472;-68
2023/09/26 10:02:11;;;;;;;1.75;0.77;;;;;;;23.86;62.93;101173.44;5062981;28;20035;-67
2023/09/26 10:04:37;;;;;;;1.20;0.45;;;;;;;23.96;60.19;101179.09;5059923;28;20024;-67
2023/09/26 10:07:03;;;;;;;3.80;0.57;;;;;;;24.14;61.71;101176.50;5060175;28;20040;-66
2023/09/26 10:09:32;;;;;;;1.58;0.60;;;;;;;24.09;62.56;101173.69;5058216;28;20540;-69
2023/09/26 10:12:00;;;;;;;1.92;0.60;;;;;;;24.11;61.95;101171.59;5057961;28;20033;-68
2023/09/26 10:14:29;;;;;;;2.45;0.60;;;;;;;24.20;58.96;101171.34;5058391;28;20044;-67
2023/09/26 10:16:56;;;;;;;1.25;0.40;;;;;;;24.21;59.48;101172.97;5056409;28;20088;-66
2023/09/26 10:19:26;;;;;;;1.98;0.55;;;;;;;24.09;61.24;101175.53;5061337;28;20475;-66
2023/09/26 10:21:52;;;;;;;6.18;1.00;;;;;;;24.16;60.42;101163.78;5071977;28;20039;-66
2023/09/26 10:24:21;;;;;;;2.72;0.57;;;;;;;24.22;61.30;101167.44;5070867;28;20028;-66
2023/09/26 10:26:48;;;;;;;5.15;0.50;;;;;;;24.32;59.18;101173.13;5070618;28;20089;-67
2023/09/26 10:29:19;;;;;;;1.90;0.45;;;;;;;24.31;58.57;101168.00;5072085;28;20028;-67
2023/09/26 10:31:58;;;;;;;2.17;0.40;;;;;;;24.28;59.57;101163.13;5065455;28;20028;-68
2023/09/26 10:34:32;;;;;;;3.60;0.20;;;;;;;24.26;60.71;101157.19;5071039;28;20031;-67
2023/09/26 10:37:05;;;;;;;7.30;0.50;;;;;;;24.36;59.61;101165.50;5061766;28;20028;-66
2023/09/26 10:39:39;;;;;;;1.95;0.60;;;;;;;24.53;56.10;101155.94;5076709;28;20416;-67
2023/09/26 10:42:17;;;;;;;1.08;0.30;;;;;;;24.49;57.21;101160.06;5061637;28;20033;-67
2023/09/26 10:44:49;;;;;;;1.35;0.57;;;;;;;24.54;58.01;101170.88;5055433;28;20035;-68
2023/09/26 10:47:15;;;;;;;1.88;0.57;;;;;;;24.58;59.68;101177.38;5068784;28;20541;-67
2023/09/26 10:49:43;;;;;;;1.20;0.32;;;;;;;24.53;60.20;101161.25;5055478;28;20443;-67
2023/09/26 10:52:10;;;;;;;1.95;0.43;;;;;;;24.61;61.02;101160.97;5068284;28;20501;-69
2023/09/26 10:54:37;;;;;;;2.45;0.40;;;;;;;24.48;60.28;101158.44;5069960;28;20087;-69
2023/09/26 10:57:05;;;;;;;2.25;0.60;;;;;;;24.31;63.39;101154.69;5067269;28;20048;-69
2023/09/26 10:59:32;;;;;;;3.97;0.40;;;;;;;24.05;66.47;101148.53;5067826;28;20570;-69
2023/09/26 11:01:59;;;;;;;0.95;0.43;;;;;;;24.33;62.62;101150.78;5076048;28;20021;-67
2023/09/26 11:04:29;;;;;;;2.45;0.57;;;;;;;24.55;59.59;101142.41;5068780;28;20025;-67
2023/09/26 11:06:58;;;;;;;2.47;0.40;;;;;;;24.54;61.82;101136.25;5062363;28;20035;-68
2023/09/26 11:09:25;;;;;;;4.22;0.43;;;;;;;24.75;59.33;101135.81;5064935;28;20024;-68
2023/09/26 11:11:50;;;;;;;1.50;0.40;;;;;;;24.83;59.09;101125.91;5069226;28;20114;-67
2023/09/26 11:14:17;;;;;;;1.42;0.43;;;;;;;24.85;57.53;101129.16;5069616;28;20119;-68
2023/09/26 11:16:43;;;;;;;4.05;0.40;;;;;;;24.87;58.24;101117.25;5065943;28;20025;-72